CheckWX is a tool to help pilots better visualize weather data.  It is not intended as a substitute for an official pre-flight weather briefing.

21:51:25 UTC

EFHK METAR
Helsinki Vantaa Airport
Helsinki, Finland
Current

31 mins ago

EFHK 232120Z 10004KT CAVOK 10/03 Q1013 NOSIG
Observed
May-23 @ 21:20 UTC
Wind
  • 100° at 4 KTS
Visibility
10,000+ meters
Flight Rules
VFR
Cloud Levels
  • Clear skies
Temperature
10°C / 50°F
Dewpoint
C / 37°F
Humidity
62%
Altimeter
29.91" Hg
Pressure
1012.92 hPa
Previous

1 hour ago

EFHK 232050Z 10006KT CAVOK 09/04 Q1013 NOSIG
Observed
May-23 @ 20:50 UTC
Wind
  • 100° at 6 KTS
Visibility
10,000+ meters
Flight Rules
VFR
Cloud Levels
  • Clear skies
Temperature
C / 48°F
Dewpoint
C / 39°F
Humidity
71%
Altimeter
29.91" Hg
Pressure
1012.92 hPa
Previous

2 hours ago

EFHK 232020Z 09006KT CAVOK 10/04 Q1013 NOSIG
Observed
May-23 @ 20:20 UTC
Wind
  • 090° at 6 KTS
Visibility
10,000+ meters
Flight Rules
VFR
Cloud Levels
  • Clear skies
Temperature
10°C / 50°F
Dewpoint
C / 39°F
Humidity
67%
Altimeter
29.91" Hg
Pressure
1012.92 hPa